Aérodrome :
LOGIN :

S'inscrire | Disclaimer

   EN    FR    IT 

 










Légende :    VFR   VFR Marginal   IFR   IFR Intensif   IFR Très Intensif
Visi : 
Plafond : 
>= 8 km
>= 3000ft
5 à 8 km
1000 à 3000 ft
1500m à 5 km
500 à 1000 ft
800 à 1500m
200 à 500 ft
< 800m
< 200 ft
Symboles :   Orages  Brouillard  Fortes neiges  Fortes précipitations  Vent > 20 kt
SIGMETs :   Divers  Orages  Givrage  Turbulence  Onde Orograph.  Cendres Volcan.







- Altitude de l'aérodrome : 2776 ft
- Code IATA : VLL


LEVD - Valladolid

DERNIER METAR :
  • 161900Z 06015KT 9999 FEW047 24/12 Q1016

METARs EXPIRÉS :
  • 161830Z 06015KT 9999 FEW047 26/12 Q1016
  • 161800Z 06012KT 020V090 9999 SCT045 28/11 Q1016
  • 161730Z 34006KT 280V060 9999 SCT045 30/06 Q1015
  • 161700Z 33003KT 230V030 9999 SCT045 31/07 Q1016
  • 161630Z 01003KT 9999 SCT040 30/07 Q1016

TAF TAF LEVD
Valide du 16 à 18h jusqu'au 17 à 18h UTC


161700Z 1618/1718 05012KT 9999 FEW040 TX28/1618Z TN12/1706Z
TEMPO 1618/1620 VRB05KT
PROB40
TEMPO 1619/1624 05020G30KT
PROB30
TEMPO 1712/1718 FEW040TCU
Pas de NOTAMs connus pour ce terrain.
3 SIGMETs publiés pour la FIR Madrid (LECM) :
 
Orages noyés dans la masse
LECM SIGMET 14 VALID 161900/162100 LEVA
LECM MADRID FIR/UIR EMBD TS OBS AT 1850Z WI N3953 W00633 - N4029 W00448 - N3930 W00457 - N3852 W00216 - N3701 W00356 - N3806 W00633 - N3917 W00551 - N3953 W00633 TOP FL380 MOV SSE WKN=
Orages noyés dans la masse
LECM SIGMET 13 VALID 161900/162100 LEVA
LECM MADRID FIR/UIR EMBD TS OBS AT 1849Z E OF LINE N4147 W00146 - N3950 W00219 TOP FL390 MOV SE WKN=
Orages noyés dans la masse
LECM SIGMET 11 VALID 161700/161900 LEVA
LECM MADRID FIR/UIR EMBD TS OBS AT 1642Z E OF LINE N3932 W00505 - N3638 W00530 TOP FL390 STNR NC=



MET'MAP, la Météo Aéronautique d'un coup d'oeil ! - Copyright ORBIFLY Décembre 2007 - Disclaimer

ORBIFLY MET'MAP TEAM :

Programmation & Développement : Alexandra Zaïnal
Conception & Développement : Baudouin d'Aumeries
Co-Programmation & Développement : Marc-Olivier Méhu
Soutien technique & logistique : Manuel Goepfert

Contact : metmap@orbifly.com




SOURCES & CREDITS :

   NOAA